메인 페이지
METAR-TAF:

METAR-TAF

공항 :

La Ceiba, 온두라스

위도: 15-44N, 경도: 086-52W, 고도: 3m

현재 날씨관측

예보는 21분 전, 12:00시(UTC)에 발표되었습니다.
여러 방향의 바람 2kt
온도 26°C
습도 89%
기압 1009 hPa
시정: 3000m

METAR: MHLC 251200Z VRB02KT 3000 NSC 26/24 Q1009 A2980 NOSIG

시각: 06:21 (12:21 UTC)

예보

예보는 1 시간 31분 전, 10:50시(UTC)에 발표되었습니다.
예보 대상 시간: 25일 12시부터 26일 12시까지 (UTC)
여러 방향의 바람 3kt
시정: 2000m
고도 2800ft 상공 구름 조금
연기
전환 중
25일 18시부터 25일 20시까지 (UTC)
동북동10kt
시정: 4000m
전환 중
26일 01시부터 26일 03시까지 (UTC)
여러 방향의 바람 4kt
전환 중
26일 08시부터 26일 10시까지 (UTC)
시정: 2000m

TAF: MHLC 251050Z 2512/2612 VRB03KT 2000 FU FEW028 TX33/2519Z TN26/2612Z BECMG 2518/2520 06010KT 4000 BECMG 2601/2603 VRB04KT BECMG 2608/2610 2000

4,000개 이상의 공항 관측 자료 및 예보 (METAR 및 TAF 보고).

지도상에서 검색 가능한 기상관측소가 노란 점과 빨간 점으로 표시되어 있습니다.

기상관측소 명을 보려면 표시 위로 마우스를 이동하세요.

날씨 관측과 예보를 보려면 클릭하세요.

지도 변경 : 확대하려면 엑스 표시가 있는 녹색 버튼, 축소하려면 빼기 표시가 있는 녹색 버튼, 다음 페이지의 지도를 보려면 녹색 화살표를 클릭하세요.


METAR-TAF: